sensor_id;sensor_type;location;lat;lon;timestamp;P1;durP1;ratioP1;P2;durP2;ratioP2
41952;SDS011;63613;28.200;112.870;2022-11-20T00:01:13;37.92;;;26.77;;
41952;SDS011;63613;28.200;112.870;2022-11-20T00:03:43;33.28;;;25.30;;
41952;SDS011;63613;28.200;112.870;2022-11-20T00:06:12;36.75;;;27.00;;
41952;SDS011;63613;28.200;112.870;2022-11-20T00:08:41;36.67;;;27.20;;
41952;SDS011;63613;28.200;112.870;2022-11-20T00:11:09;38.35;;;27.38;;
41952;SDS011;63613;28.200;112.870;2022-11-20T00:13:42;33.67;;;26.23;;
41952;SDS011;63613;28.200;112.870;2022-11-20T00:16:10;30.45;;;24.65;;
41952;SDS011;63613;28.200;112.870;2022-11-20T00:18:38;31.80;;;24.27;;
41952;SDS011;63613;28.200;112.870;2022-11-20T00:21:11;31.52;;;23.80;;
41952;SDS011;63613;28.200;112.870;2022-11-20T00:23:41;31.27;;;23.13;;
41952;SDS011;63613;28.200;112.870;2022-11-20T00:26:14;32.83;;;23.63;;
41952;SDS011;63613;28.200;112.870;2022-11-20T00:28:43;32.10;;;25.15;;
41952;SDS011;63613;28.200;112.870;2022-11-20T00:31:14;31.52;;;24.67;;
41952;SDS011;63613;28.200;112.870;2022-11-20T00:33:42;34.53;;;25.67;;
41952;SDS011;63613;28.200;112.870;2022-11-20T00:36:14;32.13;;;24.70;;
41952;SDS011;63613;28.200;112.870;2022-11-20T00:38:43;34.67;;;25.75;;
41952;SDS011;63613;28.200;112.870;2022-11-20T00:41:11;32.75;;;23.92;;
41952;SDS011;63613;28.200;112.870;2022-11-20T00:43:40;32.75;;;24.52;;
41952;SDS011;63613;28.200;112.870;2022-11-20T00:46:15;32.20;;;23.95;;
41952;SDS011;63613;28.200;112.870;2022-11-20T00:48:43;32.08;;;24.20;;
41952;SDS011;63613;28.200;112.870;2022-11-20T00:51:12;31.83;;;24.30;;
41952;SDS011;63613;28.200;112.870;2022-11-20T00:53:40;36.67;;;23.83;;
41952;SDS011;63613;28.200;112.870;2022-11-20T00:56:09;34.88;;;24.63;;
41952;SDS011;63613;28.200;112.870;2022-11-20T00:58:39;38.38;;;25.70;;
41952;SDS011;63613;28.200;112.870;2022-11-20T01:01:11;35.83;;;26.63;;
41952;SDS011;63613;28.200;112.870;2022-11-20T01:03:47;33.72;;;25.73;;
41952;SDS011;63613;28.200;112.870;2022-11-20T01:06:17;32.55;;;25.48;;
41952;SDS011;63613;28.200;112.870;2022-11-20T01:08:46;34.35;;;25.88;;
41952;SDS011;63613;28.200;112.870;2022-11-20T01:11:16;32.85;;;25.42;;
41952;SDS011;63613;28.200;112.870;2022-11-20T01:13:45;33.13;;;24.88;;
41952;SDS011;63613;28.200;112.870;2022-11-20T01:18:44;30.15;;;23.33;;
41952;SDS011;63613;28.200;112.870;2022-11-20T01:21:15;31.77;;;22.98;;
41952;SDS011;63613;28.200;112.870;2022-11-20T01:23:44;32.03;;;24.65;;
41952;SDS011;63613;28.200;112.870;2022-11-20T01:26:13;33.28;;;24.75;;
41952;SDS011;63613;28.200;112.870;2022-11-20T01:28:42;33.47;;;26.17;;
41952;SDS011;63613;28.200;112.870;2022-11-20T01:31:10;31.92;;;23.60;;
41952;SDS011;63613;28.200;112.870;2022-11-20T01:33:39;33.28;;;24.10;;
41952;SDS011;63613;28.200;112.870;2022-11-20T01:36:06;33.40;;;23.70;;
41952;SDS011;63613;28.200;112.870;2022-11-20T01:38:56;29.67;;;21.67;;
41952;SDS011;63613;28.200;112.870;2022-11-20T01:41:45;29.52;;;23.63;;
41952;SDS011;63613;28.200;112.870;2022-11-20T01:47:17;29.48;;;22.58;;
41952;SDS011;63613;28.200;112.870;2022-11-20T01:50:11;30.30;;;22.90;;
41952;SDS011;63613;28.200;112.870;2022-11-20T01:55:47;32.30;;;23.95;;
41952;SDS011;63613;28.200;112.870;2022-11-20T01:58:18;29.30;;;22.90;;
41952;SDS011;63613;28.200;112.870;2022-11-20T02:00:48;32.80;;;25.38;;
41952;SDS011;63613;28.200;112.870;2022-11-20T02:03:35;35.53;;;26.00;;
41952;SDS011;63613;28.200;112.870;2022-11-20T02:06:04;31.77;;;24.77;;
41952;SDS011;63613;28.200;112.870;2022-11-20T02:08:50;29.15;;;23.92;;
41952;SDS011;63613;28.200;112.870;2022-11-20T02:11:18;34.97;;;26.80;;
41952;SDS011;63613;28.200;112.870;2022-11-20T02:14:05;34.72;;;26.65;;
41952;SDS011;63613;28.200;112.870;2022-11-20T02:16:34;29.58;;;22.80;;
41952;SDS011;63613;28.200;112.870;2022-11-20T02:19:08;29.05;;;22.45;;
41952;SDS011;63613;28.200;112.870;2022-11-20T02:22:05;30.55;;;22.67;;
41952;SDS011;63613;28.200;112.870;2022-11-20T02:24:40;30.42;;;21.50;;
41952;SDS011;63613;28.200;112.870;2022-11-20T02:27:10;33.80;;;25.60;;
41952;SDS011;63613;28.200;112.870;2022-11-20T02:30:00;34.70;;;25.75;;
41952;SDS011;63613;28.200;112.870;2022-11-20T02:32:29;38.08;;;28.50;;
41952;SDS011;63613;28.200;112.870;2022-11-20T02:37:54;39.85;;;28.75;;
41952;SDS011;63613;28.200;112.870;2022-11-20T02:40:23;37.25;;;27.00;;
41952;SDS011;63613;28.200;112.870;2022-11-20T02:42:54;37.10;;;27.85;;
41952;SDS011;63613;28.200;112.870;2022-11-20T02:45:22;39.50;;;29.30;;
41952;SDS011;63613;28.200;112.870;2022-11-20T02:47:50;37.33;;;27.60;;
41952;SDS011;63613;28.200;112.870;2022-11-20T02:50:18;37.58;;;27.05;;
41952;SDS011;63613;28.200;112.870;2022-11-20T02:52:45;36.65;;;26.92;;
41952;SDS011;63613;28.200;112.870;2022-11-20T02:55:14;32.58;;;25.73;;
41952;SDS011;63613;28.200;112.870;2022-11-20T02:57:41;31.38;;;22.90;;
41952;SDS011;63613;28.200;112.870;2022-11-20T03:00:08;28.63;;;23.33;;
41952;SDS011;63613;28.200;112.870;2022-11-20T03:02:36;28.17;;;22.15;;
41952;SDS011;63613;28.200;112.870;2022-11-20T03:05:04;29.75;;;22.83;;
41952;SDS011;63613;28.200;112.870;2022-11-20T03:07:32;28.75;;;22.67;;
41952;SDS011;63613;28.200;112.870;2022-11-20T03:09:59;31.63;;;23.90;;
41952;SDS011;63613;28.200;112.870;2022-11-20T03:12:26;28.05;;;22.17;;
41952;SDS011;63613;28.200;112.870;2022-11-20T03:14:53;28.55;;;23.13;;
41952;SDS011;63613;28.200;112.870;2022-11-20T03:17:20;29.58;;;23.77;;
41952;SDS011;63613;28.200;112.870;2022-11-20T03:19:47;29.95;;;24.08;;
41952;SDS011;63613;28.200;112.870;2022-11-20T03:22:14;30.38;;;23.95;;
41952;SDS011;63613;28.200;112.870;2022-11-20T03:24:41;30.17;;;23.40;;
41952;SDS011;63613;28.200;112.870;2022-11-20T03:27:11;34.15;;;26.15;;
41952;SDS011;63613;28.200;112.870;2022-11-20T03:29:38;29.65;;;23.90;;
41952;SDS011;63613;28.200;112.870;2022-11-20T03:32:05;28.92;;;22.58;;
41952;SDS011;63613;28.200;112.870;2022-11-20T03:34:33;28.25;;;23.52;;
41952;SDS011;63613;28.200;112.870;2022-11-20T03:37:00;30.48;;;22.85;;
41952;SDS011;63613;28.200;112.870;2022-11-20T03:39:27;28.45;;;21.83;;
41952;SDS011;63613;28.200;112.870;2022-11-20T03:41:54;26.27;;;21.33;;
41952;SDS011;63613;28.200;112.870;2022-11-20T03:44:21;25.60;;;20.65;;
41952;SDS011;63613;28.200;112.870;2022-11-20T03:46:48;25.85;;;19.73;;
41952;SDS011;63613;28.200;112.870;2022-11-20T03:49:35;22.15;;;18.30;;
41952;SDS011;63613;28.200;112.870;2022-11-20T03:52:02;22.20;;;16.95;;
41952;SDS011;63613;28.200;112.870;2022-11-20T03:54:30;20.50;;;16.33;;
41952;SDS011;63613;28.200;112.870;2022-11-20T03:56:57;19.55;;;15.93;;
41952;SDS011;63613;28.200;112.870;2022-11-20T03:59:26;18.88;;;16.23;;
41952;SDS011;63613;28.200;112.870;2022-11-20T04:01:53;19.80;;;16.38;;
41952;SDS011;63613;28.200;112.870;2022-11-20T04:04:20;18.77;;;14.95;;
41952;SDS011;63613;28.200;112.870;2022-11-20T04:06:47;15.63;;;13.50;;
41952;SDS011;63613;28.200;112.870;2022-11-20T04:09:14;30.00;;;21.17;;
41952;SDS011;63613;28.200;112.870;2022-11-20T04:11:41;44.75;;;32.08;;
41952;SDS011;63613;28.200;112.870;2022-11-20T04:14:12;55.65;;;40.45;;
41952;SDS011;63613;28.200;112.870;2022-11-20T04:16:41;78.47;;;51.80;;
41952;SDS011;63613;28.200;112.870;2022-11-20T04:19:12;62.83;;;41.58;;
41952;SDS011;63613;28.200;112.870;2022-11-20T04:21:41;78.22;;;54.00;;
41952;SDS011;63613;28.200;112.870;2022-11-20T04:24:11;73.28;;;47.40;;
41952;SDS011;63613;28.200;112.870;2022-11-20T04:26:38;79.55;;;52.65;;
41952;SDS011;63613;28.200;112.870;2022-11-20T04:29:06;84.80;;;53.88;;
41952;SDS011;63613;28.200;112.870;2022-11-20T04:31:36;73.93;;;52.22;;
41952;SDS011;63613;28.200;112.870;2022-11-20T04:34:04;82.13;;;54.63;;
41952;SDS011;63613;28.200;112.870;2022-11-20T04:36:32;87.72;;;58.38;;
41952;SDS011;63613;28.200;112.870;2022-11-20T04:39:01;85.88;;;56.10;;
41952;SDS011;63613;28.200;112.870;2022-11-20T04:41:32;82.63;;;55.15;;
41952;SDS011;63613;28.200;112.870;2022-11-20T04:44:02;84.75;;;57.92;;
41952;SDS011;63613;28.200;112.870;2022-11-20T04:46:31;70.90;;;50.25;;
41952;SDS011;63613;28.200;112.870;2022-11-20T04:49:00;80.90;;;53.22;;
41952;SDS011;63613;28.200;112.870;2022-11-20T04:51:27;83.10;;;53.38;;
41952;SDS011;63613;28.200;112.870;2022-11-20T04:54:15;80.32;;;52.85;;
41952;SDS011;63613;28.200;112.870;2022-11-20T04:56:42;70.93;;;48.33;;
41952;SDS011;63613;28.200;112.870;2022-11-20T04:59:12;73.53;;;49.58;;
41952;SDS011;63613;28.200;112.870;2022-11-20T05:01:39;71.88;;;49.92;;
41952;SDS011;63613;28.200;112.870;2022-11-20T05:04:06;69.10;;;47.28;;
41952;SDS011;63613;28.200;112.870;2022-11-20T05:06:33;61.38;;;42.13;;
41952;SDS011;63613;28.200;112.870;2022-11-20T05:09:01;61.80;;;41.53;;
41952;SDS011;63613;28.200;112.870;2022-11-20T05:11:28;61.28;;;43.70;;
41952;SDS011;63613;28.200;112.870;2022-11-20T05:14:15;61.83;;;43.25;;
41952;SDS011;63613;28.200;112.870;2022-11-20T05:16:48;56.22;;;42.05;;
41952;SDS011;63613;28.200;112.870;2022-11-20T05:19:18;63.25;;;44.55;;
41952;SDS011;63613;28.200;112.870;2022-11-20T05:21:45;62.97;;;42.92;;
41952;SDS011;63613;28.200;112.870;2022-11-20T05:24:12;60.28;;;41.00;;
41952;SDS011;63613;28.200;112.870;2022-11-20T05:26:42;61.70;;;43.20;;
41952;SDS011;63613;28.200;112.870;2022-11-20T05:29:10;49.80;;;36.38;;
41952;SDS011;63613;28.200;112.870;2022-11-20T05:31:38;54.00;;;39.78;;
41952;SDS011;63613;28.200;112.870;2022-11-20T05:34:08;55.28;;;37.47;;
41952;SDS011;63613;28.200;112.870;2022-11-20T05:36:55;52.80;;;38.85;;
41952;SDS011;63613;28.200;112.870;2022-11-20T05:39:26;53.88;;;38.97;;
41952;SDS011;63613;28.200;112.870;2022-11-20T05:41:53;52.13;;;35.85;;
41952;SDS011;63613;28.200;112.870;2022-11-20T05:44:39;49.53;;;34.67;;
41952;SDS011;63613;28.200;112.870;2022-11-20T05:47:06;49.22;;;34.33;;
41952;SDS011;63613;28.200;112.870;2022-11-20T05:49:33;46.75;;;31.77;;
41952;SDS011;63613;28.200;112.870;2022-11-20T05:52:00;48.78;;;31.95;;
41952;SDS011;63613;28.200;112.870;2022-11-20T05:54:27;40.03;;;29.92;;
41952;SDS011;63613;28.200;112.870;2022-11-20T05:56:54;43.33;;;31.48;;
41952;SDS011;63613;28.200;112.870;2022-11-20T05:59:24;45.80;;;32.15;;
41952;SDS011;63613;28.200;112.870;2022-11-20T06:01:51;43.97;;;30.73;;
41952;SDS011;63613;28.200;112.870;2022-11-20T06:04:18;42.35;;;32.50;;
41952;SDS011;63613;28.200;112.870;2022-11-20T06:06:47;40.97;;;29.20;;
41952;SDS011;63613;28.200;112.870;2022-11-20T06:09:35;37.72;;;28.27;;
41952;SDS011;63613;28.200;112.870;2022-11-20T06:12:02;39.08;;;27.30;;
41952;SDS011;63613;28.200;112.870;2022-11-20T06:14:31;38.47;;;28.85;;
41952;SDS011;63613;28.200;112.870;2022-11-20T06:16:59;42.10;;;29.17;;
41952;SDS011;63613;28.200;112.870;2022-11-20T06:19:26;41.80;;;30.13;;
41952;SDS011;63613;28.200;112.870;2022-11-20T06:21:55;38.58;;;27.45;;
41952;SDS011;63613;28.200;112.870;2022-11-20T06:24:22;38.83;;;28.77;;
41952;SDS011;63613;28.200;112.870;2022-11-20T06:26:50;43.08;;;31.05;;
41952;SDS011;63613;28.200;112.870;2022-11-20T06:29:17;43.60;;;31.30;;
41952;SDS011;63613;28.200;112.870;2022-11-20T06:31:47;39.28;;;26.75;;
41952;SDS011;63613;28.200;112.870;2022-11-20T06:34:15;38.17;;;28.02;;
41952;SDS011;63613;28.200;112.870;2022-11-20T06:36:44;42.00;;;30.77;;
41952;SDS011;63613;28.200;112.870;2022-11-20T06:39:11;37.78;;;27.08;;
41952;SDS011;63613;28.200;112.870;2022-11-20T06:41:38;40.63;;;31.25;;
41952;SDS011;63613;28.200;112.870;2022-11-20T06:44:25;43.92;;;30.60;;
41952;SDS011;63613;28.200;112.870;2022-11-20T06:46:55;35.45;;;26.23;;
41952;SDS011;63613;28.200;112.870;2022-11-20T06:49:22;34.33;;;25.70;;
41952;SDS011;63613;28.200;112.870;2022-11-20T06:51:49;37.40;;;27.65;;
41952;SDS011;63613;28.200;112.870;2022-11-20T06:54:16;34.63;;;27.17;;
41952;SDS011;63613;28.200;112.870;2022-11-20T06:56:46;39.42;;;27.60;;
41952;SDS011;63613;28.200;112.870;2022-11-20T06:59:14;36.35;;;27.77;;
41952;SDS011;63613;28.200;112.870;2022-11-20T07:01:41;40.78;;;28.70;;
41952;SDS011;63613;28.200;112.870;2022-11-20T07:04:08;39.05;;;27.17;;
41952;SDS011;63613;28.200;112.870;2022-11-20T07:06:36;38.53;;;28.40;;
41952;SDS011;63613;28.200;112.870;2022-11-20T07:09:03;37.45;;;27.17;;
41952;SDS011;63613;28.200;112.870;2022-11-20T07:11:30;43.83;;;32.58;;
41952;SDS011;63613;28.200;112.870;2022-11-20T07:13:57;37.38;;;27.10;;
41952;SDS011;63613;28.200;112.870;2022-11-20T07:16:45;41.33;;;29.60;;
41952;SDS011;63613;28.200;112.870;2022-11-20T07:19:12;42.72;;;28.80;;
41952;SDS011;63613;28.200;112.870;2022-11-20T07:21:39;41.78;;;28.98;;
41952;SDS011;63613;28.200;112.870;2022-11-20T07:24:06;39.08;;;27.40;;
41952;SDS011;63613;28.200;112.870;2022-11-20T07:26:33;43.67;;;30.98;;
41952;SDS011;63613;28.200;112.870;2022-11-20T07:29:00;40.30;;;27.55;;
41952;SDS011;63613;28.200;112.870;2022-11-20T07:31:29;42.92;;;32.22;;
41952;SDS011;63613;28.200;112.870;2022-11-20T07:33:56;40.75;;;29.13;;
41952;SDS011;63613;28.200;112.870;2022-11-20T07:36:23;37.83;;;27.83;;
41952;SDS011;63613;28.200;112.870;2022-11-20T07:38:50;44.38;;;32.60;;
41952;SDS011;63613;28.200;112.870;2022-11-20T07:41:17;43.25;;;31.42;;
41952;SDS011;63613;28.200;112.870;2022-11-20T07:43:44;48.22;;;35.78;;
41952;SDS011;63613;28.200;112.870;2022-11-20T07:46:11;44.50;;;31.60;;
41952;SDS011;63613;28.200;112.870;2022-11-20T07:48:39;42.83;;;30.75;;
41952;SDS011;63613;28.200;112.870;2022-11-20T07:51:06;47.45;;;34.95;;
41952;SDS011;63613;28.200;112.870;2022-11-20T07:53:33;41.08;;;31.00;;
41952;SDS011;63613;28.200;112.870;2022-11-20T07:56:00;41.08;;;33.85;;
41952;SDS011;63613;28.200;112.870;2022-11-20T07:58:29;39.40;;;29.55;;
41952;SDS011;63613;28.200;112.870;2022-11-20T08:01:02;41.17;;;31.55;;
41952;SDS011;63613;28.200;112.870;2022-11-20T08:03:33;40.40;;;30.67;;
41952;SDS011;63613;28.200;112.870;2022-11-20T08:06:03;51.00;;;34.85;;
41952;SDS011;63613;28.200;112.870;2022-11-20T08:08:30;37.42;;;28.17;;
41952;SDS011;63613;28.200;112.870;2022-11-20T08:10:57;40.90;;;30.40;;
41952;SDS011;63613;28.200;112.870;2022-11-20T08:13:43;44.97;;;30.58;;
41952;SDS011;63613;28.200;112.870;2022-11-20T08:16:28;47.65;;;33.22;;
41952;SDS011;63613;28.200;112.870;2022-11-20T08:18:58;41.47;;;31.95;;
41952;SDS011;63613;28.200;112.870;2022-11-20T08:21:45;58.20;;;41.90;;
41952;SDS011;63613;28.200;112.870;2022-11-20T08:24:12;55.10;;;39.28;;
41952;SDS011;63613;28.200;112.870;2022-11-20T08:26:40;58.55;;;39.80;;
41952;SDS011;63613;28.200;112.870;2022-11-20T08:29:07;52.40;;;37.60;;
41952;SDS011;63613;28.200;112.870;2022-11-20T08:31:34;53.03;;;36.45;;
41952;SDS011;63613;28.200;112.870;2022-11-20T08:34:01;52.45;;;37.33;;
41952;SDS011;63613;28.200;112.870;2022-11-20T08:36:29;55.20;;;39.75;;
41952;SDS011;63613;28.200;112.870;2022-11-20T08:39:00;52.28;;;38.13;;
41952;SDS011;63613;28.200;112.870;2022-11-20T08:41:28;54.45;;;39.13;;
41952;SDS011;63613;28.200;112.870;2022-11-20T08:44:02;54.20;;;40.60;;
41952;SDS011;63613;28.200;112.870;2022-11-20T08:46:38;56.35;;;39.92;;
41952;SDS011;63613;28.200;112.870;2022-11-20T08:49:07;53.53;;;37.70;;
41952;SDS011;63613;28.200;112.870;2022-11-20T08:51:37;53.50;;;39.17;;
41952;SDS011;63613;28.200;112.870;2022-11-20T08:54:12;66.38;;;47.13;;
41952;SDS011;63613;28.200;112.870;2022-11-20T08:56:39;59.72;;;39.38;;
41952;SDS011;63613;28.200;112.870;2022-11-20T08:59:26;62.65;;;43.63;;
41952;SDS011;63613;28.200;112.870;2022-11-20T09:01:56;62.40;;;42.25;;
41952;SDS011;63613;28.200;112.870;2022-11-20T09:04:23;58.25;;;41.72;;
41952;SDS011;63613;28.200;112.870;2022-11-20T09:06:51;59.15;;;40.22;;
41952;SDS011;63613;28.200;112.870;2022-11-20T09:09:19;66.30;;;42.92;;
41952;SDS011;63613;28.200;112.870;2022-11-20T09:11:46;56.50;;;40.03;;
41952;SDS011;63613;28.200;112.870;2022-11-20T09:14:15;56.22;;;38.60;;
41952;SDS011;63613;28.200;112.870;2022-11-20T09:16:44;65.38;;;42.80;;
41952;SDS011;63613;28.200;112.870;2022-11-20T09:19:12;62.42;;;41.45;;
41952;SDS011;63613;28.200;112.870;2022-11-20T09:21:39;59.08;;;40.20;;
41952;SDS011;63613;28.200;112.870;2022-11-20T09:24:06;63.90;;;41.00;;
41952;SDS011;63613;28.200;112.870;2022-11-20T09:26:33;52.60;;;36.60;;
41952;SDS011;63613;28.200;112.870;2022-11-20T09:29:00;55.90;;;36.85;;
41952;SDS011;63613;28.200;112.870;2022-11-20T09:31:27;52.70;;;36.25;;
41952;SDS011;63613;28.200;112.870;2022-11-20T09:33:54;52.47;;;37.13;;
41952;SDS011;63613;28.200;112.870;2022-11-20T09:36:22;50.75;;;36.60;;
41952;SDS011;63613;28.200;112.870;2022-11-20T09:38:49;48.15;;;35.13;;
41952;SDS011;63613;28.200;112.870;2022-11-20T09:44:24;44.53;;;31.77;;
41952;SDS011;63613;28.200;112.870;2022-11-20T09:47:01;43.70;;;33.00;;
41952;SDS011;63613;28.200;112.870;2022-11-20T09:49:47;45.20;;;31.23;;
41952;SDS011;63613;28.200;112.870;2022-11-20T09:55:30;40.03;;;28.63;;
41952;SDS011;63613;28.200;112.870;2022-11-20T09:57:57;43.85;;;30.67;;
41952;SDS011;63613;28.200;112.870;2022-11-20T10:00:26;42.03;;;27.70;;
41952;SDS011;63613;28.200;112.870;2022-11-20T10:03:06;41.17;;;27.35;;
41952;SDS011;63613;28.200;112.870;2022-11-20T10:06:05;41.35;;;28.63;;
41952;SDS011;63613;28.200;112.870;2022-11-20T10:08:43;36.20;;;26.27;;
41952;SDS011;63613;28.200;112.870;2022-11-20T10:11:24;35.22;;;25.85;;
41952;SDS011;63613;28.200;112.870;2022-11-20T10:17:02;32.60;;;26.13;;
41952;SDS011;63613;28.200;112.870;2022-11-20T10:30:13;33.50;;;24.85;;
41952;SDS011;63613;28.200;112.870;2022-11-20T10:32:43;35.03;;;25.52;;
41952;SDS011;63613;28.200;112.870;2022-11-20T10:37:52;35.88;;;24.27;;
41952;SDS011;63613;28.200;112.870;2022-11-20T10:40:30;30.98;;;24.15;;
41952;SDS011;63613;28.200;112.870;2022-11-20T10:43:41;33.20;;;24.00;;
41952;SDS011;63613;28.200;112.870;2022-11-20T10:46:00;32.63;;;23.83;;
41952;SDS011;63613;28.200;112.870;2022-11-20T10:48:34;32.47;;;24.58;;
41952;SDS011;63613;28.200;112.870;2022-11-20T10:54:00;29.83;;;23.73;;
41952;SDS011;63613;28.200;112.870;2022-11-20T11:02:23;27.58;;;22.45;;
41952;SDS011;63613;28.200;112.870;2022-11-20T11:04:58;31.30;;;23.15;;
41952;SDS011;63613;28.200;112.870;2022-11-20T11:07:50;25.73;;;20.70;;
41952;SDS011;63613;28.200;112.870;2022-11-20T11:10:24;32.45;;;24.05;;
41952;SDS011;63613;28.200;112.870;2022-11-20T11:13:01;28.88;;;22.70;;
41952;SDS011;63613;28.200;112.870;2022-11-20T11:15:36;30.45;;;23.15;;
41952;SDS011;63613;28.200;112.870;2022-11-20T11:18:08;32.05;;;23.50;;
41952;SDS011;63613;28.200;112.870;2022-11-20T11:20:52;28.77;;;23.08;;
41952;SDS011;63613;28.200;112.870;2022-11-20T11:25:57;28.10;;;22.48;;
41952;SDS011;63613;28.200;112.870;2022-11-20T11:28:26;28.60;;;23.38;;
41952;SDS011;63613;28.200;112.870;2022-11-20T11:30:54;31.60;;;24.88;;
41952;SDS011;63613;28.200;112.870;2022-11-20T11:33:23;30.13;;;22.15;;
41952;SDS011;63613;28.200;112.870;2022-11-20T11:36:02;33.25;;;24.75;;
41952;SDS011;63613;28.200;112.870;2022-11-20T11:38:42;31.73;;;22.73;;
41952;SDS011;63613;28.200;112.870;2022-11-20T11:41:29;31.48;;;24.25;;
41952;SDS011;63613;28.200;112.870;2022-11-20T11:47:23;30.52;;;22.13;;
41952;SDS011;63613;28.200;112.870;2022-11-20T11:55:29;32.88;;;24.27;;
41952;SDS011;63613;28.200;112.870;2022-11-20T12:00:39;34.88;;;26.63;;
41952;SDS011;63613;28.200;112.870;2022-11-20T12:06:21;37.92;;;27.45;;
41952;SDS011;63613;28.200;112.870;2022-11-20T12:08:56;30.90;;;23.83;;
41952;SDS011;63613;28.200;112.870;2022-11-20T12:14:37;34.55;;;26.08;;
41952;SDS011;63613;28.200;112.870;2022-11-20T12:17:11;32.13;;;25.75;;
41952;SDS011;63613;28.200;112.870;2022-11-20T12:19:40;32.50;;;25.02;;
41952;SDS011;63613;28.200;112.870;2022-11-20T12:22:24;33.35;;;25.05;;
41952;SDS011;63613;28.200;112.870;2022-11-20T12:27:41;36.95;;;26.77;;
41952;SDS011;63613;28.200;112.870;2022-11-20T12:30:25;32.03;;;26.10;;
41952;SDS011;63613;28.200;112.870;2022-11-20T12:35:52;37.03;;;26.25;;
41952;SDS011;63613;28.200;112.870;2022-11-20T12:48:00;32.78;;;25.63;;
41952;SDS011;63613;28.200;112.870;2022-11-20T12:54:00;34.92;;;25.25;;
41952;SDS011;63613;28.200;112.870;2022-11-20T13:07:50;35.03;;;25.20;;
41952;SDS011;63613;28.200;112.870;2022-11-20T13:13:00;33.63;;;26.30;;
41952;SDS011;63613;28.200;112.870;2022-11-20T13:18:26;35.10;;;27.60;;
41952;SDS011;63613;28.200;112.870;2022-11-20T13:21:00;33.43;;;24.70;;
41952;SDS011;63613;28.200;112.870;2022-11-20T13:23:27;36.30;;;25.50;;
41952;SDS011;63613;28.200;112.870;2022-11-20T13:26:05;35.25;;;26.05;;
41952;SDS011;63613;28.200;112.870;2022-11-20T13:28:41;34.25;;;23.92;;
41952;SDS011;63613;28.200;112.870;2022-11-20T13:31:09;34.15;;;25.02;;
41952;SDS011;63613;28.200;112.870;2022-11-20T13:33:57;31.13;;;25.45;;
41952;SDS011;63613;28.200;112.870;2022-11-20T13:36:27;32.70;;;23.73;;
41952;SDS011;63613;28.200;112.870;2022-11-20T13:39:23;32.95;;;25.73;;
41952;SDS011;63613;28.200;112.870;2022-11-20T13:44:44;30.58;;;24.38;;
41952;SDS011;63613;28.200;112.870;2022-11-20T13:47:20;31.13;;;23.40;;
41952;SDS011;63613;28.200;112.870;2022-11-20T13:49:49;29.95;;;21.77;;
41952;SDS011;63613;28.200;112.870;2022-11-20T13:55:16;33.80;;;24.48;;
41952;SDS011;63613;28.200;112.870;2022-11-20T14:00:51;32.92;;;24.23;;
41952;SDS011;63613;28.200;112.870;2022-11-20T14:03:41;31.33;;;23.30;;
41952;SDS011;63613;28.200;112.870;2022-11-20T14:06:14;34.60;;;25.38;;
41952;SDS011;63613;28.200;112.870;2022-11-20T14:08:54;35.78;;;24.75;;
41952;SDS011;63613;28.200;112.870;2022-11-20T14:11:23;28.52;;;22.63;;
41952;SDS011;63613;28.200;112.870;2022-11-20T14:14:10;30.38;;;22.70;;
41952;SDS011;63613;28.200;112.870;2022-11-20T14:16:43;33.50;;;25.00;;
41952;SDS011;63613;28.200;112.870;2022-11-20T14:19:30;32.20;;;24.17;;
41952;SDS011;63613;28.200;112.870;2022-11-20T14:22:17;29.83;;;22.10;;
41952;SDS011;63613;28.200;112.870;2022-11-20T14:24:46;31.67;;;23.70;;
41952;SDS011;63613;28.200;112.870;2022-11-20T14:27:16;30.08;;;25.08;;
41952;SDS011;63613;28.200;112.870;2022-11-20T14:29:46;29.02;;;22.38;;
41952;SDS011;63613;28.200;112.870;2022-11-20T14:32:17;31.35;;;22.75;;
41952;SDS011;63613;28.200;112.870;2022-11-20T14:34:49;30.55;;;23.00;;
41952;SDS011;63613;28.200;112.870;2022-11-20T14:37:21;29.50;;;23.13;;
41952;SDS011;63613;28.200;112.870;2022-11-20T14:39:54;28.52;;;21.67;;
41952;SDS011;63613;28.200;112.870;2022-11-20T14:42:24;30.33;;;22.60;;
41952;SDS011;63613;28.200;112.870;2022-11-20T14:44:59;28.20;;;22.20;;
41952;SDS011;63613;28.200;112.870;2022-11-20T14:47:29;28.25;;;22.02;;
41952;SDS011;63613;28.200;112.870;2022-11-20T14:50:01;28.15;;;21.98;;
41952;SDS011;63613;28.200;112.870;2022-11-20T14:52:29;27.90;;;21.77;;
41952;SDS011;63613;28.200;112.870;2022-11-20T14:54:57;30.33;;;22.50;;
41952;SDS011;63613;28.200;112.870;2022-11-20T14:57:35;28.35;;;22.40;;
41952;SDS011;63613;28.200;112.870;2022-11-20T15:02:43;29.42;;;21.70;;
41952;SDS011;63613;28.200;112.870;2022-11-20T15:05:11;28.80;;;22.05;;
41952;SDS011;63613;28.200;112.870;2022-11-20T15:07:44;31.13;;;22.33;;
41952;SDS011;63613;28.200;112.870;2022-11-20T15:10:19;28.33;;;22.73;;
41952;SDS011;63613;28.200;112.870;2022-11-20T15:12:54;32.35;;;22.60;;
41952;SDS011;63613;28.200;112.870;2022-11-20T15:15:30;29.25;;;21.58;;
41952;SDS011;63613;28.200;112.870;2022-11-20T15:18:18;29.27;;;21.23;;
41952;SDS011;63613;28.200;112.870;2022-11-20T15:21:16;28.10;;;20.60;;
41952;SDS011;63613;28.200;112.870;2022-11-20T15:23:46;29.60;;;22.27;;
41952;SDS011;63613;28.200;112.870;2022-11-20T15:26:15;26.90;;;21.35;;
41952;SDS011;63613;28.200;112.870;2022-11-20T15:28:55;29.05;;;22.00;;
41952;SDS011;63613;28.200;112.870;2022-11-20T15:31:23;27.95;;;20.67;;
41952;SDS011;63613;28.200;112.870;2022-11-20T15:33:53;28.42;;;22.08;;
41952;SDS011;63613;28.200;112.870;2022-11-20T15:36:20;28.23;;;21.45;;
41952;SDS011;63613;28.200;112.870;2022-11-20T15:38:48;28.48;;;21.20;;
41952;SDS011;63613;28.200;112.870;2022-11-20T15:41:37;29.80;;;22.17;;
41952;SDS011;63613;28.200;112.870;2022-11-20T15:44:05;26.10;;;21.17;;
41952;SDS011;63613;28.200;112.870;2022-11-20T15:46:35;27.45;;;21.48;;
41952;SDS011;63613;28.200;112.870;2022-11-20T15:49:05;30.00;;;21.95;;
41952;SDS011;63613;28.200;112.870;2022-11-20T15:51:38;28.70;;;20.75;;
41952;SDS011;63613;28.200;112.870;2022-11-20T15:54:14;31.23;;;22.40;;
41952;SDS011;63613;28.200;112.870;2022-11-20T15:56:50;29.27;;;21.42;;
41952;SDS011;63613;28.200;112.870;2022-11-20T15:59:20;30.50;;;23.08;;
41952;SDS011;63613;28.200;112.870;2022-11-20T16:01:53;28.35;;;21.95;;
41952;SDS011;63613;28.200;112.870;2022-11-20T16:04:20;29.33;;;21.42;;
41952;SDS011;63613;28.200;112.870;2022-11-20T16:06:47;29.38;;;22.00;;
41952;SDS011;63613;28.200;112.870;2022-11-20T16:09:14;27.42;;;20.98;;
41952;SDS011;63613;28.200;112.870;2022-11-20T16:11:43;30.17;;;22.30;;